createdAt,value
2018-11-07T00:02:04.017Z,144.27
2018-11-07T00:04:34.441Z,125.73
2018-11-07T00:07:16.561Z,134.33
2018-11-07T00:09:46.675Z,124.37
2018-11-07T00:12:16.824Z,219.13
2018-11-07T00:14:46.991Z,189.53
2018-11-07T00:17:17.149Z,120.53
2018-11-07T00:19:47.236Z,143.33
2018-11-07T00:22:17.712Z,115.13
2018-11-07T00:24:47.833Z,107.33
2018-11-07T00:27:17.971Z,110.77
2018-11-07T00:29:48.066Z,116.03
2018-11-07T00:32:18.192Z,122.63
2018-11-07T00:34:48.297Z,122.47
2018-11-07T00:37:18.427Z,111.20
2018-11-07T00:39:48.625Z,124.13
2018-11-07T00:42:18.763Z,116.50
2018-11-07T00:44:48.876Z,117.20
2018-11-07T00:47:19.061Z,103.53
2018-11-07T00:49:49.195Z,94.60
2018-11-07T00:52:19.645Z,115.23
2018-11-07T00:54:49.749Z,123.83
2018-11-07T00:57:19.861Z,128.70
2018-11-07T00:59:49.960Z,115.80
2018-11-07T01:02:20.081Z,112.40
2018-11-07T01:04:50.200Z,134.13
2018-11-07T01:07:20.320Z,119.13
2018-11-07T01:09:50.444Z,110.87
2018-11-07T01:12:20.557Z,107.53
2018-11-07T01:14:50.671Z,109.20
2018-11-07T01:23:05.337Z,116.90
2018-11-07T01:25:35.456Z,118.67
2018-11-07T01:28:05.732Z,108.87
2018-11-07T01:30:35.801Z,123.40
2018-11-07T01:33:06.269Z,115.17
2018-11-07T01:45:27.379Z,107.80
2018-11-07T01:47:57.565Z,108.73
2018-11-07T01:50:27.662Z,105.60
2018-11-07T01:52:57.781Z,112.47
2018-11-07T01:55:27.903Z,115.27
2018-11-07T01:57:58.147Z,107.90
2018-11-07T02:00:28.265Z,99.93
2018-11-07T02:02:58.366Z,102.83
2018-11-07T02:05:28.515Z,100.53
2018-11-07T02:07:58.638Z,110.27
2018-11-07T02:10:28.841Z,104.07
2018-11-07T02:12:59.017Z,110.13
2018-11-07T02:15:29.160Z,98.27
2018-11-07T02:20:51.828Z,118.60
2018-11-07T02:23:22.093Z,115.70
2018-11-07T02:25:52.221Z,107.27
2018-11-07T02:28:22.387Z,106.93
2018-11-07T02:30:52.512Z,103.00
2018-11-07T02:33:22.625Z,96.53
2018-11-07T02:35:52.733Z,95.83
2018-11-07T02:38:23.075Z,105.20
2018-11-07T02:40:53.198Z,103.10
2018-11-07T02:43:23.318Z,107.63
2018-11-07T02:45:53.441Z,97.97
2018-11-07T02:48:23.594Z,101.10
2018-11-07T02:50:53.694Z,112.27
2018-11-07T02:53:23.924Z,96.33
2018-11-07T02:55:54.003Z,90.93
2018-11-07T02:58:24.415Z,91.63
2018-11-07T03:00:54.524Z,91.63
2018-11-07T03:03:24.633Z,88.43
2018-11-07T03:05:54.737Z,88.80
2018-11-07T03:08:24.887Z,80.17
2018-11-07T03:10:55.010Z,80.53
2018-11-07T03:13:25.133Z,74.27
2018-11-07T03:15:55.252Z,74.90
2018-11-07T03:18:25.361Z,69.57
2018-11-07T03:20:55.461Z,71.97
2018-11-07T03:23:25.569Z,66.40
2018-11-07T03:25:55.672Z,68.33
2018-11-07T03:28:25.777Z,70.53
2018-11-07T03:30:55.885Z,60.43
2018-11-07T03:33:25.987Z,61.67
2018-11-07T03:35:56.105Z,63.47
2018-11-07T03:38:26.185Z,61.30
2018-11-07T03:40:56.384Z,61.03
2018-11-07T03:43:26.475Z,54.67
2018-11-07T03:45:59.412Z,52.87
2018-11-07T03:48:30.761Z,59.00
2018-11-07T03:51:01.412Z,57.43
2018-11-07T03:53:31.526Z,61.57
2018-11-07T03:56:01.654Z,63.40
2018-11-07T03:58:31.782Z,61.40
2018-11-07T04:01:01.881Z,56.03
2018-11-07T04:03:32.018Z,55.87
2018-11-07T04:06:02.153Z,55.00
2018-11-07T04:11:45.536Z,49.90
2018-11-07T04:14:15.637Z,48.73
2018-11-07T04:16:45.752Z,47.83
2018-11-07T04:19:15.874Z,48.90
2018-11-07T04:21:46.115Z,44.77
2018-11-07T04:24:16.241Z,38.40
2018-11-07T04:26:46.357Z,40.90
2018-11-07T04:29:16.456Z,41.23
2018-11-07T04:31:46.561Z,45.20
2018-11-07T04:34:16.671Z,43.70
2018-11-07T04:36:46.775Z,42.77
2018-11-07T04:39:17.037Z,43.57
2018-11-07T04:41:46.985Z,42.63
2018-11-07T04:44:17.154Z,41.30
2018-11-07T04:46:47.221Z,41.20
2018-11-07T04:49:21.928Z,31.77
2018-11-07T04:55:21.825Z,30.57
2018-11-07T04:57:51.947Z,32.73
2018-11-07T05:00:22.105Z,29.80
2018-11-07T05:02:52.220Z,33.07
2018-11-07T05:05:22.340Z,28.57
2018-11-07T05:07:52.463Z,29.53
2018-11-07T05:10:22.585Z,25.87
2018-11-07T05:12:52.693Z,31.90
2018-11-07T05:15:22.798Z,31.13
2018-11-07T05:17:52.942Z,25.87
2018-11-07T05:20:23.063Z,29.03
2018-11-07T05:22:53.193Z,32.73
2018-11-07T05:25:23.309Z,31.37
2018-11-07T05:27:53.449Z,30.13
2018-11-07T05:30:23.653Z,30.80
2018-11-07T05:32:53.786Z,32.30
2018-11-07T05:35:23.901Z,30.23
2018-11-07T05:37:54.020Z,28.70
2018-11-07T05:40:24.145Z,28.73
2018-11-07T05:42:54.274Z,27.43
2018-11-07T05:45:24.382Z,27.57
2018-11-07T05:47:54.723Z,27.27
2018-11-07T05:50:24.816Z,29.97
2018-11-07T05:53:02.305Z,32.60
2018-11-07T05:55:32.487Z,31.67
2018-11-07T05:58:02.607Z,34.03
2018-11-07T06:00:32.714Z,34.73
2018-11-07T06:03:02.833Z,31.60
2018-11-07T06:05:32.969Z,36.03
2018-11-07T06:08:03.116Z,30.97
2018-11-07T06:10:33.202Z,32.30
2018-11-07T06:13:03.308Z,29.57
2018-11-07T06:15:33.414Z,27.07
2018-11-07T06:18:03.503Z,29.33
2018-11-07T06:20:33.688Z,31.97
2018-11-07T06:23:04.311Z,28.20
2018-11-07T06:25:34.381Z,54.20
2018-11-07T06:28:04.489Z,47.30
2018-11-07T06:30:34.591Z,36.37
2018-11-07T06:33:04.928Z,36.10
2018-11-07T06:35:35.033Z,37.07
2018-11-07T06:38:05.377Z,38.83
2018-11-07T06:40:35.673Z,36.17
2018-11-07T06:43:05.805Z,31.50
2018-11-07T06:45:35.905Z,31.43
2018-11-07T06:48:06.037Z,33.63
2018-11-07T06:50:36.160Z,30.97
2018-11-07T06:53:06.360Z,29.93
2018-11-07T06:55:36.497Z,33.27
2018-11-07T06:58:06.839Z,34.30
2018-11-07T07:00:36.969Z,33.20
2018-11-07T07:03:07.213Z,28.43
2018-11-07T07:05:37.317Z,32.83
2018-11-07T07:08:07.445Z,31.53
2018-11-07T07:10:37.541Z,33.40
2018-11-07T07:13:07.640Z,28.33
2018-11-07T07:15:37.764Z,31.40
2018-11-07T07:18:08.033Z,32.40
2018-11-07T07:20:38.368Z,30.40
2018-11-07T07:23:08.484Z,27.07
2018-11-07T07:25:38.685Z,26.17
2018-11-07T07:28:08.725Z,31.67
2018-11-07T07:30:38.900Z,30.47
2018-11-07T07:33:09.006Z,31.03
2018-11-07T07:35:39.136Z,34.00
2018-11-07T07:38:09.232Z,29.27
2018-11-07T07:40:39.327Z,29.27
2018-11-07T07:43:09.527Z,27.97
2018-11-07T07:45:39.732Z,32.97
2018-11-07T07:48:09.761Z,28.53
2018-11-07T07:50:39.844Z,38.03
2018-11-07T07:53:10.063Z,32.17
2018-11-07T07:55:40.080Z,26.17
2018-11-07T07:58:10.173Z,25.67
2018-11-07T08:00:40.293Z,31.97
2018-11-07T08:03:10.380Z,30.03
2018-11-07T08:05:40.473Z,28.23
2018-11-07T08:08:10.626Z,33.10
2018-11-07T08:10:40.721Z,32.90
2018-11-07T08:13:10.793Z,32.40
2018-11-07T08:15:40.884Z,36.07
2018-11-07T08:18:10.952Z,35.97
2018-11-07T08:20:41.324Z,34.23
2018-11-07T08:23:11.411Z,30.63
2018-11-07T08:25:41.492Z,32.73
2018-11-07T08:28:11.580Z,33.73
2018-11-07T08:30:41.689Z,30.07
2018-11-07T08:33:11.898Z,24.50
2018-11-07T08:35:41.980Z,27.77
2018-11-07T08:38:12.107Z,27.97
2018-11-07T08:40:42.259Z,29.87
2018-11-07T08:43:12.353Z,30.17
2018-11-07T08:45:42.435Z,29.20
2018-11-07T08:48:12.821Z,31.77
2018-11-07T08:50:42.925Z,29.50
2018-11-07T08:53:12.996Z,30.17
2018-11-07T08:55:43.097Z,27.87
2018-11-07T08:58:13.188Z,28.20
2018-11-07T09:00:43.284Z,28.10
2018-11-07T09:03:13.405Z,32.90
2018-11-07T09:05:43.493Z,32.03
2018-11-07T09:08:13.570Z,26.17
2018-11-07T09:10:43.648Z,34.23
2018-11-07T09:13:13.813Z,28.33
2018-11-07T09:15:43.900Z,42.57
2018-11-07T09:18:13.992Z,30.77
2018-11-07T09:20:44.101Z,45.17
2018-11-07T09:23:14.180Z,37.03
2018-11-07T09:25:44.296Z,24.97
2018-11-07T09:28:14.405Z,28.60
2018-11-07T09:30:44.497Z,47.77
2018-11-07T09:33:14.636Z,29.77
2018-11-07T09:35:44.709Z,33.70
2018-11-07T09:38:14.865Z,33.80
2018-11-07T09:40:44.948Z,25.77
2018-11-07T09:43:15.028Z,54.27
2018-11-07T09:45:45.180Z,26.37
2018-11-07T09:48:15.308Z,22.13
2018-11-07T09:50:45.353Z,25.70
2018-11-07T09:53:15.455Z,27.60
2018-11-07T09:55:45.601Z,32.00
2018-11-07T09:58:15.666Z,26.23
2018-11-07T10:00:45.756Z,50.30
2018-11-07T10:03:15.867Z,22.10
2018-11-07T10:05:45.962Z,24.43
2018-11-07T10:08:16.045Z,19.53
2018-11-07T10:10:46.157Z,22.70
2018-11-07T10:13:16.236Z,19.93
2018-11-07T10:15:46.325Z,25.63
2018-11-07T10:18:16.412Z,24.00
2018-11-07T10:20:46.485Z,42.40
2018-11-07T10:23:16.568Z,18.50
2018-11-07T10:25:46.681Z,17.80
2018-11-07T10:28:16.881Z,18.90
2018-11-07T10:30:46.853Z,14.87
2018-11-07T10:33:16.944Z,16.80
2018-11-07T10:35:47.033Z,17.17
2018-11-07T10:38:17.191Z,14.33
2018-11-07T10:40:47.253Z,16.70
2018-11-07T10:43:17.349Z,18.83
2018-11-07T10:45:47.481Z,34.63
2018-11-07T10:48:17.573Z,19.23
2018-11-07T10:50:47.681Z,15.47
2018-11-07T10:53:21.953Z,22.97
2018-11-07T10:55:52.081Z,14.53
2018-11-07T10:58:22.171Z,14.90
2018-11-07T11:00:57.556Z,15.47
2018-11-07T11:03:30.824Z,15.37
2018-11-07T11:06:00.922Z,17.77
2018-11-07T11:08:31.124Z,15.33
2018-11-07T11:11:01.363Z,14.90
2018-11-07T11:13:32.414Z,15.47
2018-11-07T11:16:02.511Z,15.20
2018-11-07T11:18:32.632Z,22.60
2018-11-07T11:21:02.969Z,26.77
2018-11-07T11:23:33.082Z,20.67
2018-11-07T11:26:03.189Z,16.03
2018-11-07T11:28:33.276Z,19.53
2018-11-07T11:31:03.365Z,16.57
2018-11-07T11:33:33.449Z,19.67
2018-11-07T11:36:03.574Z,17.23
2018-11-07T11:38:33.665Z,21.13
2018-11-07T11:41:03.802Z,30.17
2018-11-07T11:43:33.837Z,33.90
2018-11-07T11:46:03.936Z,20.03
2018-11-07T11:48:34.005Z,23.10
2018-11-07T11:51:04.319Z,19.17
2018-11-07T11:53:34.400Z,17.73
2018-11-07T11:56:04.682Z,16.97
2018-11-07T11:58:35.086Z,20.57
2018-11-07T12:01:05.505Z,18.30
2018-11-07T12:03:35.596Z,18.80
2018-11-07T12:06:05.924Z,16.40
2018-11-07T12:08:36.106Z,19.63
2018-11-07T12:11:06.450Z,20.37
2018-11-07T12:13:36.549Z,20.97
2018-11-07T12:16:06.663Z,21.83
2018-11-07T12:18:36.753Z,19.87
2018-11-07T12:21:06.886Z,21.83
2018-11-07T12:23:36.962Z,20.00
2018-11-07T12:26:07.089Z,22.07
2018-11-07T12:28:37.169Z,24.07
2018-11-07T12:31:07.329Z,35.37
2018-11-07T12:33:37.417Z,20.17
2018-11-07T12:36:07.555Z,22.20
2018-11-07T12:38:37.655Z,21.13
2018-11-07T12:41:07.769Z,20.33
2018-11-07T12:43:37.880Z,21.03
2018-11-07T12:46:07.965Z,20.20
2018-11-07T12:48:38.101Z,22.70
2018-11-07T12:51:08.201Z,20.20
2018-11-07T12:53:38.404Z,20.33
2018-11-07T12:56:08.553Z,20.17
2018-11-07T12:58:38.706Z,20.10
2018-11-07T13:01:08.824Z,19.73
2018-11-07T13:03:38.928Z,20.13
2018-11-07T13:06:09.068Z,21.83
2018-11-07T13:08:39.200Z,17.40
2018-11-07T13:11:09.369Z,21.53
2018-11-07T13:13:39.424Z,19.53
2018-11-07T13:16:09.537Z,18.73
2018-11-07T13:18:39.711Z,19.83
2018-11-07T13:21:09.814Z,20.13
2018-11-07T13:23:39.908Z,22.03
2018-11-07T13:26:10.029Z,21.60
2018-11-07T13:28:40.204Z,31.97
2018-11-07T13:31:10.235Z,23.27
2018-11-07T13:33:40.978Z,21.07
2018-11-07T13:36:11.117Z,18.00
2018-11-07T13:41:42.805Z,20.57
2018-11-07T13:44:12.916Z,20.10
2018-11-07T13:46:43.044Z,21.17
2018-11-07T13:49:13.214Z,24.90
2018-11-07T13:51:43.300Z,20.70
2018-11-07T13:54:13.461Z,24.17
2018-11-07T13:56:43.592Z,22.63
2018-11-07T13:59:13.689Z,25.90
2018-11-07T14:01:43.769Z,24.33
2018-11-07T14:04:13.880Z,24.13
2018-11-07T14:06:43.997Z,24.80
2018-11-07T14:09:14.068Z,23.60
2018-11-07T14:11:44.160Z,26.43
2018-11-07T14:14:14.300Z,24.90
2018-11-07T14:16:44.492Z,24.87
2018-11-07T14:19:14.791Z,24.80
2018-11-07T14:21:45.133Z,25.33
2018-11-07T14:24:15.327Z,25.67
2018-11-07T14:26:46.497Z,26.80
2018-11-07T14:29:16.637Z,24.23
2018-11-07T14:31:46.805Z,23.27
2018-11-07T14:34:17.624Z,22.17
2018-11-07T14:36:47.733Z,22.23
2018-11-07T14:39:18.183Z,21.50
2018-11-07T14:41:48.249Z,22.30
2018-11-07T14:44:18.690Z,24.40
2018-11-07T14:46:48.995Z,26.87
2018-11-07T14:49:19.093Z,28.00
2018-11-07T14:51:49.188Z,25.20
2018-11-07T14:54:19.401Z,26.53
2018-11-07T14:56:49.450Z,26.50
2018-11-07T14:59:19.564Z,25.90
2018-11-07T15:01:49.692Z,26.40
2018-11-07T15:04:19.846Z,24.30
2018-11-07T15:06:50.170Z,25.03
2018-11-07T15:09:20.689Z,25.57
2018-11-07T15:11:50.916Z,24.40
2018-11-07T15:14:21.347Z,24.70
2018-11-07T15:16:51.537Z,26.03
2018-11-07T15:19:21.649Z,24.63
2018-11-07T15:21:51.789Z,23.00
2018-11-07T15:24:22.246Z,23.77
2018-11-07T15:26:52.654Z,21.47
2018-11-07T15:29:22.757Z,24.57
2018-11-07T15:31:57.150Z,23.47
2018-11-07T15:34:28.190Z,23.00
2018-11-07T15:36:59.067Z,22.37
2018-11-07T15:39:29.810Z,23.83
2018-11-07T15:42:00.318Z,22.53
2018-11-07T15:44:31.117Z,22.97
2018-11-07T15:47:01.284Z,21.47
2018-11-07T15:49:31.768Z,20.03
2018-11-07T15:52:02.668Z,22.53
2018-11-07T15:54:33.303Z,23.47
2018-11-07T15:57:03.724Z,20.63
2018-11-07T15:59:33.822Z,20.37
2018-11-07T16:02:03.932Z,20.70
2018-11-07T16:04:34.269Z,24.10
2018-11-07T16:07:04.685Z,22.27
2018-11-07T16:09:34.801Z,23.80
2018-11-07T16:12:05.327Z,24.90
2018-11-07T16:14:35.595Z,25.80
2018-11-07T16:17:06.085Z,25.27
2018-11-07T16:19:36.187Z,24.13
2018-11-07T16:22:07.045Z,25.13
2018-11-07T16:24:37.263Z,27.97
2018-11-07T16:27:07.524Z,79.23
2018-11-07T16:29:38.360Z,58.73
2018-11-07T16:32:08.601Z,30.23
2018-11-07T16:34:39.339Z,27.97
2018-11-07T16:37:09.441Z,22.47
2018-11-07T16:39:39.573Z,25.00
2018-11-07T16:42:10.178Z,25.10
2018-11-07T16:44:40.268Z,25.93
2018-11-07T16:47:10.461Z,28.03
2018-11-07T16:49:40.609Z,31.30
2018-11-07T16:52:10.692Z,36.43
2018-11-07T16:54:40.776Z,35.83
2018-11-07T16:57:10.889Z,39.47
2018-11-07T16:59:41.008Z,36.50
2018-11-07T17:02:11.181Z,35.07
2018-11-07T17:04:41.333Z,43.77
2018-11-07T17:07:11.428Z,40.53
2018-11-07T17:09:41.552Z,40.83
2018-11-07T17:12:11.657Z,35.13
2018-11-07T17:14:41.801Z,40.33
2018-11-07T17:17:11.889Z,39.93
2018-11-07T17:19:41.987Z,43.20
2018-11-07T17:22:12.067Z,48.57
2018-11-07T17:24:42.607Z,43.50
2018-11-07T17:27:12.972Z,34.67
2018-11-07T17:29:43.106Z,33.40
2018-11-07T17:32:13.350Z,35.93
2018-11-07T17:34:43.517Z,34.13
2018-11-07T17:37:13.919Z,34.70
2018-11-07T17:39:43.992Z,29.30
2018-11-07T17:42:14.072Z,28.07
2018-11-07T17:44:44.324Z,28.07
2018-11-07T17:47:14.439Z,33.90
2018-11-07T17:49:44.568Z,34.87
2018-11-07T17:52:14.680Z,48.27
2018-11-07T17:54:45.053Z,54.23
2018-11-07T17:57:15.281Z,44.23
2018-11-07T17:59:45.484Z,38.00
2018-11-07T18:02:15.680Z,34.30
2018-11-07T18:04:45.836Z,31.83
2018-11-07T18:07:15.984Z,30.73
2018-11-07T18:09:46.155Z,33.83
2018-11-07T18:12:16.389Z,43.47
2018-11-07T18:14:46.513Z,39.57
2018-11-07T18:17:16.618Z,37.93
2018-11-07T18:19:47.412Z,38.47
2018-11-07T18:22:17.509Z,36.53
2018-11-07T18:24:47.664Z,36.20
2018-11-07T18:27:18.050Z,33.43
2018-11-07T18:29:48.375Z,35.07
2018-11-07T18:32:18.481Z,33.97
2018-11-07T18:34:49.000Z,34.93
2018-11-07T18:37:19.084Z,35.43
2018-11-07T18:39:49.214Z,35.77
2018-11-07T18:42:19.307Z,31.97
2018-11-07T18:44:49.645Z,34.67
2018-11-07T18:47:19.745Z,41.10
2018-11-07T18:49:49.954Z,39.87
2018-11-07T18:52:20.060Z,40.83
2018-11-07T18:54:50.432Z,39.60
2018-11-07T18:57:20.851Z,39.77
2018-11-07T18:59:51.205Z,41.83
2018-11-07T19:02:21.349Z,42.00
2018-11-07T19:04:51.524Z,43.50
2018-11-07T19:07:21.769Z,41.10
2018-11-07T19:09:51.868Z,38.23
2018-11-07T19:12:21.979Z,33.20
2018-11-07T19:14:52.099Z,36.13
2018-11-07T19:17:22.601Z,42.57
2018-11-07T19:19:52.727Z,40.20
2018-11-07T19:22:23.172Z,38.47
2018-11-07T19:24:54.676Z,41.47
2018-11-07T19:27:25.013Z,38.33
2018-11-07T19:29:56.125Z,50.57
2018-11-07T19:32:27.146Z,51.63
2018-11-07T19:34:58.259Z,38.77
2018-11-07T19:37:28.843Z,40.57
2018-11-07T19:39:59.869Z,48.27
2018-11-07T19:42:30.119Z,41.47
2018-11-07T19:45:00.828Z,41.50
2018-11-07T19:47:31.330Z,44.37
2018-11-07T19:50:01.507Z,45.90
2018-11-07T19:52:31.789Z,35.27
2018-11-07T19:55:02.376Z,35.77
2018-11-07T19:57:32.573Z,36.70
2018-11-07T20:00:02.818Z,35.90
2018-11-07T20:02:33.708Z,39.70
2018-11-07T20:05:04.197Z,40.40
2018-11-07T20:07:35.639Z,40.40
2018-11-07T20:10:09.422Z,38.73
2018-11-07T20:12:39.866Z,36.00
2018-11-07T20:15:11.799Z,42.63
2018-11-07T20:17:42.314Z,46.80
2018-11-07T20:20:13.064Z,40.23
2018-11-07T20:22:43.336Z,40.67
2018-11-07T20:25:14.204Z,42.27
2018-11-07T20:27:45.025Z,38.07
2018-11-07T20:30:16.914Z,43.40
2018-11-07T20:32:47.240Z,40.73
2018-11-07T20:35:19.224Z,42.03
2018-11-07T20:37:49.674Z,39.77
2018-11-07T20:40:21.152Z,36.83
2018-11-07T20:42:51.618Z,35.67
2018-11-07T20:45:22.216Z,26.80
2018-11-07T20:47:52.333Z,25.93
2018-11-07T20:50:22.533Z,24.13
2018-11-07T20:52:52.656Z,22.03
2018-11-07T20:55:22.800Z,24.10
2018-11-07T20:57:52.911Z,22.43
2018-11-07T21:00:23.674Z,23.33
2018-11-07T21:02:53.866Z,21.77
2018-11-07T21:05:24.029Z,20.93
2018-11-07T21:07:54.124Z,18.30
2018-11-07T21:10:24.304Z,17.07
2018-11-07T21:12:54.400Z,17.47
2018-11-07T21:15:24.495Z,20.60
2018-11-07T21:17:54.964Z,20.83
2018-11-07T21:20:25.083Z,21.30
2018-11-07T21:22:55.184Z,18.97
2018-11-07T21:25:25.297Z,18.87
2018-11-07T21:27:55.405Z,17.33
2018-11-07T21:30:25.532Z,19.70
2018-11-07T21:32:55.848Z,20.07
2018-11-07T21:35:26.164Z,18.80
2018-11-07T21:37:56.861Z,15.90
2018-11-07T21:40:27.143Z,16.83
2018-11-07T21:42:57.581Z,17.67
2018-11-07T21:45:28.181Z,18.17
2018-11-07T21:47:58.581Z,16.33
2018-11-07T21:50:28.686Z,19.63
2018-11-07T21:52:58.998Z,16.23
2018-11-07T21:55:29.398Z,15.20
2018-11-07T21:57:59.636Z,16.70
2018-11-07T22:00:29.793Z,15.47
2018-11-07T22:03:02.781Z,15.57
2018-11-07T22:05:33.204Z,15.67
2018-11-07T22:08:03.296Z,17.03
2018-11-07T22:10:33.392Z,15.60
2018-11-07T22:13:03.527Z,114.23
2018-11-07T22:15:33.632Z,61.93
2018-11-07T22:18:03.726Z,29.30
2018-11-07T22:20:33.828Z,18.50
2018-11-07T22:23:03.916Z,13.67
2018-11-07T22:25:34.013Z,17.03
2018-11-07T22:28:04.125Z,13.57
2018-11-07T22:30:34.602Z,17.13
2018-11-07T22:33:05.005Z,18.13
2018-11-07T22:35:35.121Z,15.13
2018-11-07T22:38:05.249Z,17.33
2018-11-07T22:40:35.373Z,17.33
2018-11-07T22:43:05.842Z,17.47
2018-11-07T22:45:35.997Z,15.03
2018-11-07T22:48:06.148Z,15.67
2018-11-07T22:50:36.247Z,17.03
2018-11-07T22:53:06.357Z,17.83
2018-11-07T22:55:36.483Z,16.53
2018-11-07T22:58:06.749Z,20.00
2018-11-07T23:00:42.624Z,17.47
2018-11-07T23:03:12.725Z,23.03
2018-11-07T23:05:42.855Z,25.53
2018-11-07T23:08:12.969Z,28.47
2018-11-07T23:10:45.107Z,28.73
2018-11-07T23:13:15.554Z,31.13
2018-11-07T23:15:46.548Z,31.63
2018-11-07T23:18:18.180Z,25.00
2018-11-07T23:20:48.313Z,23.30
2018-11-07T23:23:18.739Z,22.00
2018-11-07T23:25:48.833Z,19.87
2018-11-07T23:28:18.957Z,20.60
2018-11-07T23:30:49.040Z,22.93
2018-11-07T23:33:19.144Z,21.90
2018-11-07T23:35:49.246Z,19.80
2018-11-07T23:38:19.369Z,20.40
2018-11-07T23:40:49.516Z,19.50
2018-11-07T23:43:19.761Z,19.97
2018-11-07T23:45:49.881Z,18.03
2018-11-07T23:48:20.481Z,21.50
2018-11-07T23:50:50.573Z,20.70
2018-11-07T23:53:20.696Z,24.57
2018-11-07T23:55:50.816Z,28.73
2018-11-07T23:58:21.264Z,65.40
